createdAt,value
2018-09-04T00:02:20.331Z,73.94
2018-09-04T00:04:50.118Z,74.05
2018-09-04T00:07:21.678Z,74.05
2018-09-04T00:09:52.148Z,74.16
2018-09-04T00:12:21.926Z,74.13
2018-09-04T00:14:51.756Z,74.31
2018-09-04T00:17:21.475Z,73.45
2018-09-04T00:19:51.218Z,73.66
2018-09-04T00:22:21.052Z,73.88
2018-09-04T00:24:50.841Z,73.72
2018-09-04T00:27:20.633Z,73.95
2018-09-04T00:29:50.444Z,74.63
2018-09-04T00:32:20.218Z,74.13
2018-09-04T00:34:50.062Z,74.70
2018-09-04T00:37:19.983Z,74.38
2018-09-04T00:39:50.868Z,74.31
2018-09-04T00:42:20.707Z,74.73
2018-09-04T00:44:50.574Z,74.73
2018-09-04T00:47:20.367Z,75.17
2018-09-04T00:49:50.225Z,74.39
2018-09-04T00:52:20.524Z,75.08
2018-09-04T00:54:50.824Z,75.60
2018-09-04T00:57:20.722Z,75.60
2018-09-04T00:59:50.605Z,75.29
2018-09-04T01:02:20.481Z,75.06
2018-09-04T01:04:50.393Z,74.84
2018-09-04T01:07:20.193Z,75.40
2018-09-04T01:09:49.962Z,75.49
2018-09-04T01:12:19.445Z,74.88
2018-09-04T01:14:49.769Z,75.46
2018-09-04T01:17:19.599Z,75.67
2018-09-04T01:19:49.480Z,76.10
2018-09-04T01:22:19.278Z,75.62
2018-09-04T01:24:49.029Z,76.13
2018-09-04T01:27:18.849Z,76.08
2018-09-04T01:29:48.217Z,76.23
2018-09-04T01:32:17.980Z,76.45
2018-09-04T01:34:47.691Z,77.17
2018-09-04T01:37:17.195Z,77.25
2018-09-04T01:39:46.929Z,77.18
2018-09-04T01:42:16.623Z,77.10
2018-09-04T01:44:46.001Z,77.12
2018-09-04T01:47:15.366Z,76.99
2018-09-04T01:49:45.149Z,77.32
2018-09-04T01:52:14.878Z,77.48
2018-09-04T01:54:44.598Z,77.61
2018-09-04T01:57:14.499Z,77.10
2018-09-04T01:59:44.269Z,77.12
2018-09-04T02:02:14.053Z,76.65
2018-09-04T02:04:43.796Z,76.33
2018-09-04T02:07:13.549Z,77.17
2018-09-04T02:09:43.339Z,77.35
2018-09-04T02:12:13.193Z,77.93
2018-09-04T02:14:42.911Z,78.11
2018-09-04T02:17:12.638Z,78.51
2018-09-04T02:19:42.383Z,78.42
2018-09-04T02:22:12.146Z,78.48
2018-09-04T02:24:41.932Z,78.63
2018-09-04T02:27:11.287Z,78.76
2018-09-04T02:29:40.636Z,79.41
2018-09-04T02:32:10.447Z,78.98
2018-09-04T02:34:40.198Z,78.38
2018-09-04T02:37:09.962Z,78.15
2018-09-04T02:39:39.399Z,78.98
2018-09-04T02:42:09.153Z,78.93
2018-09-04T02:44:38.964Z,79.04
2018-09-04T02:47:08.787Z,79.38
2018-09-04T02:49:38.497Z,78.98
2018-09-04T02:52:08.313Z,79.22
2018-09-04T02:54:38.025Z,79.25
2018-09-04T02:57:07.726Z,78.61
2018-09-04T02:59:37.150Z,78.99
2018-09-04T03:02:07.084Z,79.05
2018-09-04T03:04:36.823Z,79.03
2018-09-04T03:07:07.205Z,79.35
2018-09-04T03:09:36.968Z,79.50
2018-09-04T03:12:06.775Z,79.26
2018-09-04T03:14:36.712Z,79.98
2018-09-04T03:17:06.555Z,79.82
2018-09-04T03:19:35.976Z,79.14
2018-09-04T03:22:05.771Z,79.40
2018-09-04T03:24:35.564Z,79.24
2018-09-04T03:27:05.366Z,79.72
2018-09-04T03:29:35.140Z,79.64
2018-09-04T03:32:04.931Z,79.83
2018-09-04T03:34:34.409Z,79.29
2018-09-04T03:37:04.235Z,78.47
2018-09-04T03:39:34.084Z,78.32
2018-09-04T03:42:03.828Z,78.45
2018-09-04T03:44:33.628Z,78.24
2018-09-04T03:47:03.462Z,78.34
2018-09-04T03:49:32.958Z,77.96
2018-09-04T03:52:02.825Z,78.36
2018-09-04T03:54:32.510Z,77.92
2018-09-04T03:57:02.259Z,78.32
2018-09-04T03:59:32.064Z,78.40
2018-09-04T04:02:02.270Z,78.06
2018-09-04T04:04:32.025Z,78.33
2018-09-04T04:07:02.105Z,77.57
2018-09-04T04:09:31.822Z,77.55
2018-09-04T04:12:01.776Z,77.39
2018-09-04T04:14:31.704Z,77.61
2018-09-04T04:17:01.756Z,77.40
2018-09-04T04:19:31.207Z,77.82
2018-09-04T04:22:01.147Z,77.98
2018-09-04T04:24:30.639Z,78.37
2018-09-04T04:27:00.402Z,77.95
2018-09-04T04:29:29.900Z,77.87
2018-09-04T04:31:59.334Z,78.34
2018-09-04T04:34:28.768Z,77.85
2018-09-04T04:36:58.277Z,77.88
2018-09-04T04:39:27.895Z,78.27
2018-09-04T04:41:58.187Z,78.27
2018-09-04T04:44:27.722Z,78.17
2018-09-04T04:46:57.597Z,78.33
2018-09-04T04:49:27.082Z,78.51
2018-09-04T04:51:56.531Z,79.43
2018-09-04T04:54:26.500Z,79.60
2018-09-04T04:56:56.011Z,79.55
2018-09-04T04:59:25.591Z,80.21
2018-09-04T05:01:54.955Z,80.07
2018-09-04T05:04:25.892Z,80.60
2018-09-04T05:06:55.441Z,80.62
2018-09-04T05:09:25.258Z,80.65
2018-09-04T05:11:54.923Z,80.56
2018-09-04T05:14:24.315Z,79.92
2018-09-04T05:16:53.731Z,79.66
2018-09-04T05:19:23.483Z,79.80
2018-09-04T05:21:53.227Z,78.80
2018-09-04T05:24:22.633Z,78.79
2018-09-04T05:26:52.282Z,77.77
2018-09-04T05:29:22.128Z,77.10
2018-09-04T05:31:58.657Z,76.08
2018-09-04T05:34:28.851Z,75.91
2018-09-04T05:36:58.243Z,76.42
2018-09-04T05:39:27.916Z,76.34
2018-09-04T05:42:01.470Z,77.19
2018-09-04T05:44:31.070Z,76.56
2018-09-04T05:47:00.840Z,76.86
2018-09-04T05:49:34.054Z,76.43
2018-09-04T05:52:03.491Z,76.23
2018-09-04T05:54:32.954Z,75.49
2018-09-04T05:57:02.349Z,74.86
2018-09-04T05:59:32.334Z,74.55
2018-09-04T06:02:01.760Z,74.83
2018-09-04T06:04:31.540Z,74.70
2018-09-04T06:07:01.280Z,74.98
2018-09-04T06:09:31.026Z,74.32
2018-09-04T06:12:00.684Z,74.26
2018-09-04T06:14:30.034Z,73.94
2018-09-04T06:16:59.454Z,74.19
2018-09-04T06:19:28.856Z,74.37
2018-09-04T06:21:58.227Z,74.21
2018-09-04T06:24:27.688Z,73.99
2018-09-04T06:26:57.150Z,73.81
2018-09-04T06:29:26.634Z,73.81
2018-09-04T06:31:56.003Z,73.71
2018-09-04T06:34:25.457Z,73.01
2018-09-04T06:36:54.937Z,73.09
2018-09-04T06:39:24.414Z,72.98
2018-09-04T06:41:53.902Z,73.07
2018-09-04T06:44:23.408Z,72.56
2018-09-04T06:46:53.145Z,72.17
2018-09-04T06:49:22.859Z,71.95
2018-09-04T06:51:52.653Z,71.51
2018-09-04T06:54:22.614Z,70.27
2018-09-04T06:56:52.334Z,69.59
2018-09-04T06:59:21.745Z,68.77
2018-09-04T07:01:51.209Z,66.64
2018-09-04T07:04:21.008Z,64.54
2018-09-04T07:06:50.789Z,63.86
2018-09-04T07:09:20.497Z,61.07
2018-09-04T07:11:50.334Z,61.02
2018-09-04T07:14:19.738Z,61.88
2018-09-04T07:16:49.513Z,62.23
2018-09-04T07:19:23.156Z,61.26
2018-09-04T07:21:52.536Z,60.05
2018-09-04T07:24:22.128Z,59.71
2018-09-04T07:26:51.838Z,58.96
2018-09-04T07:29:21.598Z,58.20
2018-09-04T07:31:51.356Z,56.43
2018-09-04T07:34:21.186Z,55.97
2018-09-04T07:36:50.585Z,56.06
2018-09-04T07:39:20.406Z,55.27
2018-09-04T07:41:50.233Z,55.78
2018-09-04T07:44:20.000Z,55.06
2018-09-04T07:46:49.400Z,54.62
2018-09-04T07:49:19.351Z,53.37
2018-09-04T07:51:48.821Z,53.29
2018-09-04T07:54:18.624Z,53.43
2018-09-04T07:56:48.497Z,53.68
2018-09-04T07:59:18.318Z,54.51
2018-09-04T08:01:47.772Z,53.95
2018-09-04T08:04:17.558Z,52.99
2018-09-04T08:06:46.965Z,53.69
2018-09-04T08:09:16.757Z,53.08
2018-09-04T08:11:46.554Z,52.22
2018-09-04T08:14:16.368Z,51.94
2018-09-04T08:16:46.301Z,53.40
2018-09-04T08:19:15.741Z,54.11
2018-09-04T08:21:45.193Z,53.91
2018-09-04T08:24:14.589Z,53.44
2018-09-04T08:26:44.402Z,54.13
2018-09-04T08:29:14.245Z,54.29
2018-09-04T08:31:43.945Z,55.46
2018-09-04T08:34:13.891Z,56.33
2018-09-04T08:36:43.669Z,57.40
2018-09-04T08:39:13.503Z,57.17
2018-09-04T08:41:42.994Z,57.33
2018-09-04T08:44:12.757Z,56.94
2018-09-04T08:46:42.569Z,57.38
2018-09-04T08:49:12.350Z,57.81
2018-09-04T08:51:41.997Z,58.08
2018-09-04T08:54:11.786Z,58.92
2018-09-04T08:56:41.534Z,59.20
2018-09-04T08:59:11.001Z,59.02
2018-09-04T09:01:41.042Z,59.86
2018-09-04T09:04:11.761Z,59.27
2018-09-04T09:06:41.483Z,59.34
2018-09-04T09:09:11.152Z,59.16
2018-09-04T09:11:40.609Z,58.50
2018-09-04T09:14:09.969Z,57.98
2018-09-04T09:16:39.756Z,58.39
2018-09-04T09:19:09.577Z,58.70
2018-09-04T09:21:39.381Z,59.30
2018-09-04T09:24:08.772Z,58.12
2018-09-04T09:26:38.567Z,58.52
2018-09-04T09:29:08.260Z,58.40
2018-09-04T09:31:38.625Z,58.01
2018-09-04T09:34:08.437Z,58.45
2018-09-04T09:36:38.476Z,58.07
2018-09-04T09:39:09.898Z,56.95
2018-09-04T09:41:43.084Z,56.09
2018-09-04T09:44:13.453Z,55.13
2018-09-04T09:46:43.922Z,54.26
2018-09-04T09:49:14.755Z,54.71
2018-09-04T09:51:49.105Z,54.02
2018-09-04T09:54:19.339Z,53.39
2018-09-04T09:56:49.726Z,54.32
2018-09-04T09:59:20.037Z,52.92
2018-09-04T10:01:57.821Z,51.70
2018-09-04T10:04:28.329Z,52.46
2018-09-04T10:06:58.676Z,53.33
2018-09-04T10:09:28.804Z,53.55
2018-09-04T10:12:02.390Z,53.88
2018-09-04T10:14:32.727Z,53.82
2018-09-04T10:17:02.933Z,54.66
2018-09-04T10:19:32.872Z,54.34
2018-09-04T10:22:02.949Z,54.23
2018-09-04T10:24:33.157Z,53.93
2018-09-04T10:27:03.018Z,52.63
2018-09-04T10:29:33.031Z,52.86
2018-09-04T10:32:02.764Z,52.21
2018-09-04T10:34:32.143Z,52.25
2018-09-04T10:37:01.858Z,52.20
2018-09-04T10:39:36.865Z,51.04
2018-09-04T10:42:06.357Z,51.24
2018-09-04T10:44:36.113Z,51.18
2018-09-04T10:47:05.556Z,51.06
2018-09-04T10:49:35.297Z,49.92
2018-09-04T10:52:05.081Z,49.16
2018-09-04T10:54:34.856Z,49.19
2018-09-04T10:57:04.617Z,50.16
2018-09-04T10:59:34.314Z,47.47
2018-09-04T11:02:04.128Z,46.83
2018-09-04T11:04:33.893Z,46.31
2018-09-04T11:07:03.797Z,46.32
2018-09-04T11:09:34.162Z,46.05
2018-09-04T11:12:03.872Z,46.24
2018-09-04T11:14:33.665Z,45.94
2018-09-04T11:17:03.353Z,46.01
2018-09-04T11:19:32.731Z,46.08
2018-09-04T11:22:02.457Z,46.07
2018-09-04T11:24:32.294Z,45.77
2018-09-04T11:27:02.053Z,45.95
2018-09-04T11:29:31.812Z,44.93
2018-09-04T11:32:01.515Z,44.94
2018-09-04T11:34:31.289Z,44.56
2018-09-04T11:37:01.004Z,43.79
2018-09-04T11:39:30.754Z,42.97
2018-09-04T11:42:00.563Z,42.62
2018-09-04T11:44:30.321Z,41.10
2018-09-04T11:47:01.947Z,41.49
2018-09-04T11:49:31.720Z,41.01
2018-09-04T11:52:01.463Z,39.52
2018-09-04T11:54:31.284Z,40.21
2018-09-04T11:57:00.698Z,40.59
2018-09-04T11:59:34.547Z,40.08
2018-09-04T12:02:04.395Z,42.08
2018-09-04T12:04:34.184Z,42.76
2018-09-04T12:07:04.029Z,42.97
2018-09-04T12:09:33.821Z,42.61
2018-09-04T12:12:03.232Z,43.06
2018-09-04T12:14:39.356Z,43.19
2018-09-04T12:17:10.017Z,42.72
2018-09-04T12:19:53.932Z,42.47
2018-09-04T12:22:23.853Z,42.98
2018-09-04T12:24:53.942Z,42.94
2018-09-04T12:27:23.588Z,41.57
2018-09-04T12:29:53.408Z,40.85
2018-09-04T12:32:23.833Z,40.28
2018-09-04T12:34:53.822Z,40.38
2018-09-04T12:37:24.600Z,40.80
2018-09-04T12:39:57.532Z,40.75
2018-09-04T12:42:28.664Z,39.16
2018-09-04T12:45:00.464Z,39.77
2018-09-04T12:47:30.843Z,40.25
2018-09-04T12:50:00.788Z,41.23
2018-09-04T12:52:30.629Z,41.03
2018-09-04T12:55:00.560Z,40.37
2018-09-04T12:57:30.360Z,40.62
2018-09-04T13:00:00.684Z,41.25
2018-09-04T13:02:30.600Z,41.45
2018-09-04T13:05:00.122Z,41.30
2018-09-04T13:07:29.656Z,41.28
2018-09-04T13:09:59.530Z,41.59
2018-09-04T13:12:28.992Z,40.80
2018-09-04T13:14:58.979Z,41.67
2018-09-04T13:17:28.475Z,41.94
2018-09-04T13:19:58.288Z,41.38
2018-09-04T13:22:28.104Z,41.57
2018-09-04T13:24:57.867Z,41.08
2018-09-04T13:27:27.571Z,40.36
2018-09-04T13:29:57.392Z,39.54
2018-09-04T13:32:27.152Z,39.32
2018-09-04T13:34:56.954Z,38.49
2018-09-04T13:37:26.724Z,39.24
2018-09-04T13:40:01.392Z,38.68
2018-09-04T13:42:32.353Z,38.12
2018-09-04T13:45:02.132Z,37.76
2018-09-04T13:47:33.320Z,36.85
2018-09-04T13:50:03.073Z,36.13
2018-09-04T13:52:33.324Z,36.43
2018-09-04T13:55:03.128Z,36.23
2018-09-04T13:57:33.084Z,34.92
2018-09-04T14:00:02.926Z,34.86
2018-09-04T14:02:32.430Z,33.60
2018-09-04T14:05:02.014Z,34.37
2018-09-04T14:07:39.450Z,35.22
2018-09-04T14:10:10.096Z,37.56
2018-09-04T14:12:39.932Z,38.11
2018-09-04T14:15:10.279Z,40.04
2018-09-04T14:17:40.558Z,39.13
2018-09-04T14:20:10.158Z,38.92
2018-09-04T14:22:39.979Z,39.25
2018-09-04T14:25:09.796Z,38.07
2018-09-04T14:27:39.855Z,39.07
2018-09-04T14:30:16.808Z,38.64
2018-09-04T14:32:39.821Z,37.59
2018-09-04T14:35:12.227Z,38.13
2018-09-04T14:37:42.051Z,37.15
2018-09-04T14:40:11.994Z,37.11
2018-09-04T14:42:41.976Z,36.68
2018-09-04T14:45:11.703Z,36.83
2018-09-04T14:47:48.959Z,37.71
2018-09-04T14:50:20.132Z,38.40
2018-09-04T14:52:50.311Z,38.85
2018-09-04T14:55:20.159Z,38.47
2018-09-04T14:57:50.845Z,38.04
2018-09-04T15:00:20.595Z,39.22
2018-09-04T15:02:50.557Z,40.47
2018-09-04T15:05:20.690Z,39.54
2018-09-04T15:07:51.503Z,39.87
2018-09-04T15:10:24.263Z,40.20
2018-09-04T15:12:57.992Z,39.60
2018-09-04T15:15:32.491Z,40.19
2018-09-04T15:18:02.647Z,39.47
2018-09-04T15:20:32.591Z,39.92
2018-09-04T15:23:02.287Z,39.79
2018-09-04T15:25:33.632Z,39.75
2018-09-04T15:28:03.611Z,39.38
2018-09-04T15:30:33.238Z,38.80
2018-09-04T15:33:03.434Z,38.92
2018-09-04T15:35:33.174Z,39.31
2018-09-04T15:38:03.285Z,39.45
2018-09-04T15:40:33.259Z,39.34
2018-09-04T15:43:45.302Z,39.41
2018-09-04T15:46:14.978Z,39.73
2018-09-04T15:48:44.703Z,39.58
2018-09-04T15:51:15.047Z,39.15
2018-09-04T15:53:44.925Z,39.79
2018-09-04T15:56:14.515Z,39.86
2018-09-04T15:58:45.227Z,39.46
2018-09-04T16:01:15.538Z,39.40
2018-09-04T16:03:46.354Z,38.75
2018-09-04T16:06:15.727Z,39.09
2018-09-04T16:08:45.526Z,39.34
2018-09-04T16:11:15.678Z,39.40
2018-09-04T16:13:45.254Z,39.34
2018-09-04T16:16:15.036Z,39.41
2018-09-04T16:18:44.578Z,39.56
2018-09-04T16:21:14.962Z,38.88
2018-09-04T16:23:44.569Z,39.51
2018-09-04T16:26:14.553Z,38.86
2018-09-04T16:28:44.040Z,39.83
2018-09-04T16:31:13.551Z,39.80
2018-09-04T16:33:43.020Z,39.76
2018-09-04T16:36:12.797Z,39.88
2018-09-04T16:38:42.803Z,39.16
2018-09-04T16:41:12.727Z,39.50
2018-09-04T16:43:42.612Z,39.67
2018-09-04T16:46:11.983Z,39.48
2018-09-04T16:48:41.450Z,39.60
2018-09-04T16:51:10.982Z,39.76
2018-09-04T16:53:40.879Z,40.29
2018-09-04T16:56:10.656Z,40.74
2018-09-04T16:58:40.456Z,41.18
2018-09-04T17:01:10.232Z,42.03
2018-09-04T17:03:39.680Z,42.15
2018-09-04T17:06:09.107Z,42.75
2018-09-04T17:08:39.128Z,42.89
2018-09-04T17:11:08.616Z,42.87
2018-09-04T17:13:39.265Z,43.31
2018-09-04T17:16:08.745Z,43.67
2018-09-04T17:18:38.388Z,44.20
2018-09-04T17:21:07.938Z,44.64
2018-09-04T17:23:37.578Z,44.92
2018-09-04T17:26:08.077Z,45.66
2018-09-04T17:28:37.411Z,45.40
2018-09-04T17:31:07.118Z,46.07
2018-09-04T17:33:36.885Z,46.34
2018-09-04T17:36:06.809Z,45.80
2018-09-04T17:38:36.814Z,46.12
2018-09-04T17:41:07.091Z,46.02
2018-09-04T17:43:36.984Z,46.01
2018-09-04T17:46:07.337Z,46.00
2018-09-04T17:48:37.100Z,45.83
2018-09-04T17:51:07.199Z,46.07
2018-09-04T17:53:37.694Z,46.26
2018-09-04T17:56:07.681Z,46.45
2018-09-04T17:58:37.549Z,46.72
2018-09-04T18:01:07.199Z,47.04
2018-09-04T18:03:36.932Z,47.13
2018-09-04T18:06:06.481Z,47.17
2018-09-04T18:08:36.306Z,46.99
2018-09-04T18:11:06.153Z,47.10
2018-09-04T18:13:36.016Z,47.69
2018-09-04T18:16:05.565Z,47.95
2018-09-04T18:18:35.244Z,48.16
2018-09-04T18:21:04.797Z,48.42
2018-09-04T18:23:34.303Z,48.87
2018-09-04T18:26:04.152Z,48.97
2018-09-04T18:28:34.104Z,49.32
2018-09-04T18:31:03.646Z,49.24
2018-09-04T18:33:33.170Z,50.15
2018-09-04T18:36:02.729Z,49.98
2018-09-04T18:38:32.247Z,50.14
2018-09-04T18:41:02.117Z,50.51
2018-09-04T18:43:31.953Z,49.99
2018-09-04T18:46:01.735Z,49.90
2018-09-04T18:48:31.642Z,49.52
2018-09-04T18:51:01.572Z,50.36
2018-09-04T18:53:31.016Z,49.76
2018-09-04T18:56:00.813Z,49.74
2018-09-04T18:58:30.846Z,50.32
2018-09-04T19:01:00.811Z,50.62
2018-09-04T19:03:30.300Z,51.26
2018-09-04T19:06:00.337Z,51.58
2018-09-04T19:08:29.941Z,51.93
2018-09-04T19:10:59.827Z,51.58
2018-09-04T19:13:29.650Z,51.77
2018-09-04T19:15:59.409Z,52.12
2018-09-04T19:18:29.525Z,51.83
2018-09-04T19:20:59.116Z,51.86
2018-09-04T19:23:29.719Z,52.25
2018-09-04T19:25:59.553Z,51.71
2018-09-04T19:31:27.616Z,53.01
2018-09-04T19:33:57.662Z,53.21
2018-09-04T19:36:27.331Z,52.94
2018-09-04T19:38:58.542Z,53.13
2018-09-04T19:41:28.527Z,53.42
2018-09-04T19:43:57.964Z,53.93
2018-09-04T19:46:27.827Z,53.96
2018-09-04T19:48:59.572Z,53.90
2018-09-04T19:51:29.407Z,54.24
2018-09-04T19:53:59.330Z,55.09
2018-09-04T19:56:28.891Z,55.65
2018-09-04T19:58:58.841Z,55.78
2018-09-04T20:01:28.708Z,55.30
2018-09-04T20:03:58.388Z,55.26
2018-09-04T20:06:27.991Z,55.54
2018-09-04T20:08:57.944Z,56.19
2018-09-04T20:11:27.529Z,56.43
2018-09-04T20:13:57.167Z,57.12
2018-09-04T20:16:27.020Z,57.64
2018-09-04T20:18:56.952Z,56.89
2018-09-04T20:21:26.444Z,56.79
2018-09-04T20:23:56.264Z,56.92
2018-09-04T20:26:25.981Z,56.88
2018-09-04T20:28:55.780Z,56.74
2018-09-04T20:31:25.208Z,57.29
2018-09-04T20:33:56.032Z,57.23
2018-09-04T20:36:29.884Z,57.21
2018-09-04T20:38:59.319Z,57.62
2018-09-04T20:41:29.068Z,57.97
2018-09-04T20:43:58.574Z,57.85
2018-09-04T20:46:28.350Z,57.81
2018-09-04T20:48:58.285Z,58.60
2018-09-04T20:51:27.995Z,58.83
2018-09-04T20:53:57.415Z,59.28
2018-09-04T20:56:28.388Z,60.22
2018-09-04T20:59:14.865Z,60.18
2018-09-04T21:01:55.375Z,60.93
2018-09-04T21:04:41.749Z,61.79
2018-09-04T21:07:13.682Z,61.55
2018-09-04T21:09:48.223Z,61.60
2018-09-04T21:12:17.620Z,62.70
2018-09-04T21:14:47.370Z,61.99
2018-09-04T21:17:17.151Z,61.22
2018-09-04T21:19:46.865Z,62.10
2018-09-04T21:22:16.639Z,61.62
2018-09-04T21:24:45.999Z,62.21
2018-09-04T21:27:15.528Z,62.67
2018-09-04T21:29:45.250Z,62.84
2018-09-04T21:32:15.081Z,62.78
2018-09-04T21:34:44.805Z,62.95
2018-09-04T21:37:14.163Z,63.28
2018-09-04T21:39:43.849Z,63.24
2018-09-04T21:42:13.241Z,63.26
2018-09-04T21:44:42.671Z,63.53
2018-09-04T21:47:12.059Z,63.84
2018-09-04T21:49:42.067Z,64.21
2018-09-04T21:52:11.719Z,63.96
2018-09-04T21:54:41.423Z,64.84
2018-09-04T21:57:11.143Z,67.01
2018-09-04T21:59:40.491Z,66.11
2018-09-04T22:02:09.873Z,66.04
2018-09-04T22:04:39.390Z,67.47
2018-09-04T22:07:09.161Z,67.81
2018-09-04T22:09:39.080Z,67.53
2018-09-04T22:12:10.717Z,67.23
2018-09-04T22:14:40.930Z,67.01
2018-09-04T22:17:10.360Z,67.93
2018-09-04T22:19:40.139Z,68.11
2018-09-04T22:22:09.931Z,68.34
2018-09-04T22:24:39.387Z,68.45
2018-09-04T22:27:09.811Z,68.44
2018-09-04T22:29:43.631Z,68.54
2018-09-04T22:32:14.016Z,69.24
2018-09-04T22:34:43.817Z,69.19
2018-09-04T22:37:13.589Z,69.38
2018-09-04T22:39:43.324Z,70.37
2018-09-04T22:42:13.135Z,70.48
2018-09-04T22:44:42.499Z,70.51
2018-09-04T22:47:12.237Z,70.92
2018-09-04T22:49:47.046Z,71.10
2018-09-04T22:52:16.499Z,71.54
2018-09-04T22:54:46.227Z,71.58
2018-09-04T22:57:15.947Z,71.72
2018-09-04T22:59:45.735Z,72.92
2018-09-04T23:02:15.090Z,72.92
2018-09-04T23:04:44.473Z,73.84
2018-09-04T23:07:14.242Z,73.56
2018-09-04T23:09:43.635Z,74.28
2018-09-04T23:12:13.435Z,74.48
2018-09-04T23:14:42.914Z,74.18
2018-09-04T23:17:12.699Z,75.10
2018-09-04T23:19:42.091Z,75.36
2018-09-04T23:22:11.455Z,75.45
2018-09-04T23:24:40.800Z,75.56
2018-09-04T23:27:10.178Z,75.65
2018-09-04T23:29:39.650Z,75.36
2018-09-04T23:32:09.467Z,75.56
2018-09-04T23:34:39.636Z,75.44
2018-09-04T23:37:09.082Z,76.21
2018-09-04T23:39:38.793Z,76.25
2018-09-04T23:42:08.201Z,76.14
2018-09-04T23:44:37.652Z,76.21
2018-09-04T23:47:07.106Z,76.14
2018-09-04T23:49:36.855Z,76.15
2018-09-04T23:52:06.511Z,75.59
2018-09-04T23:54:35.938Z,75.93
2018-09-04T23:57:05.414Z,75.78
2018-09-04T23:59:34.810Z,75.61
